createdAt,value
2022-09-06T00:02:20.638Z,71.30
2022-09-06T00:04:48.172Z,71.30
2022-09-06T00:07:15.079Z,71.40
2022-09-06T00:09:41.812Z,71.50
2022-09-06T00:12:08.548Z,71.60
2022-09-06T00:14:35.333Z,71.70
2022-09-06T00:17:02.352Z,71.70
2022-09-06T00:19:29.047Z,71.80
2022-09-06T00:21:55.753Z,72.00
2022-09-06T00:24:22.655Z,72.20
2022-09-06T00:26:49.332Z,72.20
2022-09-06T00:29:16.036Z,72.30
2022-09-06T00:31:42.746Z,72.40
2022-09-06T00:34:09.464Z,72.40
2022-09-06T00:36:36.237Z,72.50
2022-09-06T00:39:03.358Z,72.60
2022-09-06T00:41:30.060Z,72.80
2022-09-06T00:43:56.799Z,73.00
2022-09-06T00:46:27.662Z,73.10
2022-09-06T00:49:00.685Z,73.20
2022-09-06T00:51:30.441Z,73.20
2022-09-06T00:53:58.217Z,73.30
2022-09-06T00:56:26.388Z,73.40
2022-09-06T00:58:53.457Z,73.60
2022-09-06T01:01:20.228Z,73.70
2022-09-06T01:03:47.195Z,73.80
2022-09-06T01:06:37.400Z,73.90
2022-09-06T01:09:14.962Z,74.00
2022-09-06T01:11:50.733Z,74.00
2022-09-06T01:14:42.150Z,74.00
2022-09-06T01:17:26.202Z,74.10
2022-09-06T01:20:20.508Z,74.10
2022-09-06T01:23:29.263Z,74.00
2022-09-06T01:26:01.788Z,74.30
2022-09-06T01:28:42.638Z,74.20
2022-09-06T01:31:45.791Z,74.40
2022-09-06T01:34:30.793Z,74.60
2022-09-06T01:37:10.969Z,74.70
2022-09-06T01:39:39.424Z,74.80
2022-09-06T01:42:11.504Z,74.90
2022-09-06T01:44:54.510Z,75.00
2022-09-06T01:47:24.190Z,75.20
2022-09-06T01:50:11.642Z,75.30
2022-09-06T01:52:56.503Z,75.50
2022-09-06T01:55:58.048Z,75.60
2022-09-06T01:58:33.940Z,75.60
2022-09-06T02:01:21.134Z,75.60
2022-09-06T02:04:18.094Z,75.70
2022-09-06T02:06:54.663Z,75.90
2022-09-06T02:09:25.625Z,76.00
2022-09-06T02:11:59.458Z,76.10
2022-09-06T02:14:39.439Z,75.80
2022-09-06T02:17:09.770Z,75.50
2022-09-06T02:19:43.343Z,75.20
2022-09-06T02:22:14.529Z,74.80
2022-09-06T02:24:44.091Z,74.50
2022-09-06T02:27:12.302Z,74.10
2022-09-06T02:29:39.235Z,73.90
2022-09-06T02:32:21.877Z,73.70
2022-09-06T02:34:54.043Z,73.50
2022-09-06T02:37:22.835Z,73.30
2022-09-06T02:39:49.624Z,73.30
2022-09-06T02:42:17.567Z,73.30
2022-09-06T02:44:44.314Z,73.40
2022-09-06T02:47:11.049Z,73.60
2022-09-06T02:49:37.782Z,73.70
2022-09-06T02:52:04.575Z,73.90
2022-09-06T02:54:31.288Z,74.00
2022-09-06T02:56:58.053Z,74.00
2022-09-06T02:59:24.880Z,74.20
2022-09-06T03:01:51.634Z,74.30
2022-09-06T03:04:18.626Z,74.40
2022-09-06T03:06:45.304Z,74.60
2022-09-06T03:09:11.999Z,74.80
2022-09-06T03:11:38.740Z,74.90
2022-09-06T03:14:05.458Z,75.10
2022-09-06T03:16:32.211Z,75.20
2022-09-06T03:18:58.924Z,75.50
2022-09-06T03:21:25.605Z,75.90
2022-09-06T03:23:52.411Z,76.30
2022-09-06T03:26:19.175Z,77.10
2022-09-06T03:28:46.095Z,77.60
2022-09-06T03:31:12.885Z,78.10
2022-09-06T03:33:39.823Z,78.60
2022-09-06T03:36:06.736Z,78.90
2022-09-06T03:38:33.464Z,79.30
2022-09-06T03:41:00.408Z,79.90
2022-09-06T03:43:28.018Z,80.50
2022-09-06T03:45:57.505Z,81.20
2022-09-06T03:48:26.225Z,81.90
2022-09-06T03:50:56.014Z,82.50
2022-09-06T03:53:24.284Z,82.90
2022-09-06T03:55:53.171Z,83.20
2022-09-06T03:58:21.557Z,83.50
2022-09-06T04:00:48.354Z,83.70
2022-09-06T04:03:15.725Z,84.10
2022-09-06T04:05:46.097Z,84.50
2022-09-06T04:08:13.171Z,84.90
2022-09-06T04:10:40.511Z,85.10
2022-09-06T04:13:07.307Z,85.40
2022-09-06T04:15:34.027Z,86.10
2022-09-06T04:18:00.807Z,86.50
2022-09-06T04:20:27.536Z,86.80
2022-09-06T04:22:54.211Z,87.10
2022-09-06T04:25:20.902Z,87.30
2022-09-06T04:27:47.642Z,87.20
2022-09-06T04:30:14.360Z,87.50
2022-09-06T04:32:41.029Z,87.50
2022-09-06T04:35:08.364Z,87.50
2022-09-06T04:37:35.035Z,87.30
2022-09-06T04:40:01.994Z,87.10
2022-09-06T04:42:28.693Z,86.90
2022-09-06T04:44:55.387Z,87.10
2022-09-06T04:47:22.246Z,87.20
2022-09-06T04:49:49.432Z,87.10
2022-09-06T04:52:16.291Z,87.00
2022-09-06T04:54:43.204Z,87.00
2022-09-06T04:57:09.919Z,87.20
2022-09-06T04:59:36.722Z,87.10
2022-09-06T05:02:03.888Z,87.20
2022-09-06T05:04:30.712Z,87.40
2022-09-06T05:07:05.480Z,87.70
2022-09-06T05:09:32.922Z,87.90
2022-09-06T05:12:00.234Z,88.10
2022-09-06T05:14:28.220Z,88.10
2022-09-06T05:16:55.676Z,88.10
2022-09-06T05:19:22.545Z,88.20
2022-09-06T05:21:51.219Z,88.20
2022-09-06T05:24:18.037Z,88.10
2022-09-06T05:26:44.920Z,88.10
2022-09-06T05:29:11.804Z,88.10
2022-09-06T05:31:38.569Z,88.00
2022-09-06T05:34:05.326Z,88.10
2022-09-06T05:36:32.277Z,88.10
2022-09-06T05:38:59.486Z,88.10
2022-09-06T05:41:26.688Z,88.20
2022-09-06T05:43:53.576Z,88.30
2022-09-06T05:46:20.580Z,88.30
2022-09-06T05:49:01.037Z,88.60
2022-09-06T05:51:27.851Z,88.70
2022-09-06T05:53:54.570Z,88.80
2022-09-06T05:56:22.313Z,88.80
2022-09-06T05:58:49.195Z,88.80
2022-09-06T06:01:15.876Z,88.90
2022-09-06T06:03:43.510Z,88.80
2022-09-06T06:06:10.531Z,88.70
2022-09-06T06:08:37.273Z,88.60
2022-09-06T06:11:04.068Z,88.60
2022-09-06T06:13:34.827Z,88.40
2022-09-06T06:16:03.230Z,88.20
2022-09-06T06:18:30.055Z,88.00
2022-09-06T06:21:16.599Z,87.80
2022-09-06T06:23:44.799Z,87.50
2022-09-06T06:26:12.749Z,87.10
2022-09-06T06:28:40.273Z,86.70
2022-09-06T06:31:09.099Z,86.20
2022-09-06T06:33:38.973Z,85.70
2022-09-06T06:36:13.259Z,85.80
2022-09-06T06:38:41.873Z,84.70
2022-09-06T06:41:11.435Z,84.10
2022-09-06T06:43:38.300Z,83.40
2022-09-06T06:46:16.889Z,82.80
2022-09-06T06:48:45.624Z,81.90
2022-09-06T06:51:14.806Z,81.40
2022-09-06T06:53:41.587Z,81.00
2022-09-06T06:56:20.521Z,80.90
2022-09-06T06:58:48.955Z,80.70
2022-09-06T07:01:17.071Z,80.70
2022-09-06T07:03:43.969Z,80.50
2022-09-06T07:06:11.501Z,80.10
2022-09-06T07:08:39.452Z,79.30
2022-09-06T07:11:07.602Z,78.10
2022-09-06T07:13:34.974Z,77.20
2022-09-06T07:16:11.230Z,76.40
2022-09-06T07:18:41.963Z,75.70
2022-09-06T07:24:10.071Z,74.00
2022-09-06T07:26:39.472Z,73.00
2022-09-06T07:29:07.588Z,72.60
2022-09-06T07:34:22.410Z,71.80
2022-09-06T07:36:53.422Z,71.20
2022-09-06T07:39:20.150Z,70.50
2022-09-06T07:41:46.916Z,70.20
2022-09-06T07:44:13.757Z,70.00
2022-09-06T07:46:40.530Z,70.10
2022-09-06T07:49:07.503Z,70.00
2022-09-06T07:51:34.261Z,70.00
2022-09-06T07:56:48.034Z,70.80
2022-09-06T07:59:14.986Z,71.30
2022-09-06T08:01:42.313Z,71.30
2022-09-06T08:04:13.894Z,71.40
2022-09-06T08:09:30.473Z,71.10
2022-09-06T08:11:57.397Z,71.10
2022-09-06T08:14:24.252Z,71.40
2022-09-06T08:16:51.144Z,71.80
2022-09-06T08:19:18.372Z,72.30
2022-09-06T08:21:45.274Z,72.50
2022-09-06T08:24:12.151Z,72.60
2022-09-06T08:26:40.508Z,72.40
2022-09-06T08:29:09.100Z,72.50
2022-09-06T08:31:39.689Z,72.50
2022-09-06T08:34:06.612Z,72.40
2022-09-06T08:36:34.412Z,72.20
2022-09-06T08:39:03.422Z,71.90
2022-09-06T08:41:31.432Z,71.20
2022-09-06T08:47:00.387Z,70.90
2022-09-06T08:49:34.454Z,71.30
2022-09-06T08:52:28.640Z,71.70
2022-09-06T08:55:13.403Z,71.80
2022-09-06T08:57:46.131Z,71.90
2022-09-06T09:00:15.004Z,71.70
2022-09-06T09:02:44.110Z,71.00
2022-09-06T09:05:21.046Z,70.30
2022-09-06T09:10:32.508Z,69.40
2022-09-06T09:13:03.221Z,69.80
2022-09-06T09:15:30.036Z,70.20
2022-09-06T09:17:56.823Z,70.10
2022-09-06T09:20:23.561Z,69.80
2022-09-06T09:22:50.380Z,69.70
2022-09-06T09:25:22.659Z,69.30
2022-09-06T09:27:57.478Z,69.00
2022-09-06T09:33:28.217Z,68.80
2022-09-06T09:35:56.786Z,68.60
2022-09-06T09:38:30.133Z,68.20
2022-09-06T09:41:00.561Z,67.30
2022-09-06T09:43:33.070Z,67.00
2022-09-06T09:46:22.362Z,66.60
2022-09-06T09:49:10.765Z,66.10
2022-09-06T09:51:40.169Z,65.70
2022-09-06T09:54:09.662Z,65.80
2022-09-06T09:56:55.403Z,65.80
2022-09-06T09:59:24.682Z,65.90
2022-09-06T10:01:55.956Z,65.90
2022-09-06T10:04:44.165Z,65.80
2022-09-06T10:07:22.930Z,65.20
2022-09-06T10:10:10.743Z,65.10
2022-09-06T10:12:40.582Z,65.20
2022-09-06T10:15:10.171Z,65.20
2022-09-06T10:17:44.343Z,65.10
2022-09-06T10:20:12.657Z,65.50
2022-09-06T10:23:06.883Z,64.50
2022-09-06T10:25:46.381Z,64.60
2022-09-06T10:28:29.237Z,64.80
2022-09-06T10:31:02.008Z,64.70
2022-09-06T10:33:49.900Z,64.30
2022-09-06T10:36:22.819Z,63.70
2022-09-06T10:39:03.674Z,63.20
2022-09-06T10:41:49.463Z,62.90
2022-09-06T10:44:27.167Z,62.80
2022-09-06T10:47:04.848Z,62.40
2022-09-06T10:49:33.393Z,61.80
2022-09-06T10:52:03.178Z,61.70
2022-09-06T10:54:33.445Z,61.40
2022-09-06T11:00:06.550Z,60.80
2022-09-06T11:05:46.397Z,60.10
2022-09-06T11:08:46.723Z,59.20
2022-09-06T11:11:21.192Z,58.40
2022-09-06T11:13:47.882Z,58.10
2022-09-06T11:16:30.043Z,58.10
2022-09-06T11:19:06.450Z,57.90
2022-09-06T11:21:51.018Z,57.40
2022-09-06T11:24:39.143Z,56.80
2022-09-06T11:27:14.841Z,56.60
2022-09-06T11:29:44.089Z,56.60
2022-09-06T11:32:28.919Z,56.10
2022-09-06T11:34:58.103Z,55.60
2022-09-06T11:37:49.593Z,55.40
2022-09-06T11:42:51.616Z,55.40
2022-09-06T11:45:41.364Z,55.00
2022-09-06T11:48:35.140Z,54.60
2022-09-06T11:51:06.698Z,54.30
2022-09-06T11:53:59.353Z,54.20
2022-09-06T11:56:29.449Z,54.30
2022-09-06T11:59:31.744Z,53.90
2022-09-06T12:02:02.910Z,53.60
2022-09-06T12:04:59.686Z,53.50
2022-09-06T12:07:28.921Z,53.20
2022-09-06T12:09:55.761Z,53.30
2022-09-06T12:12:44.461Z,53.10
2022-09-06T12:15:51.913Z,52.70
2022-09-06T12:18:47.451Z,52.50
2022-09-06T12:21:32.789Z,52.00
2022-09-06T12:24:00.185Z,52.20
2022-09-06T12:26:55.286Z,52.40
2022-09-06T12:29:26.781Z,52.40
2022-09-06T12:32:01.615Z,52.60
2022-09-06T12:34:35.043Z,53.40
2022-09-06T12:37:04.976Z,53.00
2022-09-06T12:39:31.892Z,53.10
2022-09-06T12:42:05.299Z,52.90
2022-09-06T12:44:44.257Z,52.60
2022-09-06T12:47:23.285Z,52.30
2022-09-06T12:50:10.967Z,52.10
2022-09-06T12:52:51.555Z,52.10
2022-09-06T12:55:36.312Z,52.30
2022-09-06T12:58:11.606Z,52.20
2022-09-06T13:00:51.433Z,52.30
2022-09-06T13:03:43.637Z,52.40
2022-09-06T13:06:19.091Z,52.50
2022-09-06T13:08:51.937Z,52.80
2022-09-06T13:11:25.702Z,52.90
2022-09-06T13:13:54.078Z,52.70
2022-09-06T13:16:26.708Z,52.60
2022-09-06T13:18:54.258Z,52.60
2022-09-06T13:21:31.914Z,52.50
2022-09-06T13:23:59.461Z,52.30
2022-09-06T13:26:37.403Z,52.30
2022-09-06T13:29:31.128Z,52.20
2022-09-06T13:32:01.093Z,52.30
2022-09-06T13:34:32.792Z,52.50
2022-09-06T13:37:06.023Z,52.60
2022-09-06T13:39:33.953Z,52.60
2022-09-06T13:42:05.813Z,52.60
2022-09-06T13:44:34.708Z,52.70
2022-09-06T13:47:02.344Z,52.70
2022-09-06T13:49:29.291Z,52.70
2022-09-06T13:52:00.507Z,52.80
2022-09-06T13:54:27.961Z,52.80
2022-09-06T13:56:55.406Z,52.90
2022-09-06T13:59:23.093Z,53.10
2022-09-06T14:01:58.922Z,53.40
2022-09-06T14:04:26.426Z,53.60
2022-09-06T14:06:54.029Z,53.70
2022-09-06T14:09:21.040Z,53.80
2022-09-06T14:11:48.510Z,53.90
2022-09-06T14:14:17.499Z,53.80
2022-09-06T14:16:45.199Z,53.70
2022-09-06T14:19:12.191Z,53.70
2022-09-06T14:21:39.227Z,53.90
2022-09-06T14:24:06.739Z,53.90
2022-09-06T14:26:35.439Z,54.20
2022-09-06T14:29:02.632Z,54.30
2022-09-06T14:31:30.326Z,54.30
2022-09-06T14:33:57.454Z,54.20
2022-09-06T14:36:26.803Z,54.10
2022-09-06T14:38:53.900Z,54.10
2022-09-06T14:41:21.072Z,54.10
2022-09-06T14:43:50.871Z,54.00
2022-09-06T14:46:18.592Z,54.10
2022-09-06T14:48:46.039Z,54.10
2022-09-06T14:51:19.076Z,54.10
2022-09-06T14:53:46.497Z,54.00
2022-09-06T14:56:13.770Z,54.00
2022-09-06T14:58:41.366Z,54.00
2022-09-06T15:01:08.951Z,54.00
2022-09-06T15:03:36.174Z,53.90
2022-09-06T15:06:04.125Z,53.80
2022-09-06T15:08:30.868Z,53.90
2022-09-06T15:10:58.378Z,54.20
2022-09-06T15:13:26.916Z,54.20
2022-09-06T15:15:57.164Z,54.30
2022-09-06T15:18:24.162Z,54.20
2022-09-06T15:20:50.922Z,54.10
2022-09-06T15:23:25.684Z,54.10
2022-09-06T15:25:54.012Z,54.30
2022-09-06T15:28:20.936Z,54.30
2022-09-06T15:30:48.099Z,54.40
2022-09-06T15:33:18.026Z,54.60
2022-09-06T15:35:44.861Z,55.00
2022-09-06T15:38:12.342Z,55.20
2022-09-06T15:40:39.192Z,55.30
2022-09-06T15:43:06.249Z,55.40
2022-09-06T15:45:47.236Z,55.70
2022-09-06T15:48:15.884Z,55.90
2022-09-06T15:50:51.287Z,56.20
2022-09-06T15:53:19.517Z,56.50
2022-09-06T15:55:58.480Z,56.80
2022-09-06T15:58:26.709Z,57.00
2022-09-06T16:01:02.127Z,57.20
2022-09-06T16:03:29.053Z,57.50
2022-09-06T16:08:56.432Z,57.40
2022-09-06T16:11:23.208Z,57.40
2022-09-06T16:13:50.052Z,57.10
2022-09-06T16:16:17.557Z,57.00
2022-09-06T16:18:48.860Z,57.00
2022-09-06T16:21:19.772Z,57.00
2022-09-06T16:23:52.016Z,57.10
2022-09-06T16:26:21.703Z,57.10
2022-09-06T16:28:50.684Z,57.30
2022-09-06T16:31:18.850Z,57.30
2022-09-06T16:33:47.410Z,57.30
2022-09-06T16:36:15.001Z,57.30
2022-09-06T16:38:42.282Z,57.40
2022-09-06T16:41:23.587Z,57.20
2022-09-06T16:43:50.417Z,57.00
2022-09-06T16:46:17.532Z,56.80
2022-09-06T16:48:50.503Z,56.60
2022-09-06T16:51:18.483Z,56.70
2022-09-06T16:53:46.921Z,56.00
2022-09-06T16:56:16.508Z,56.10
2022-09-06T16:58:48.741Z,56.10
2022-09-06T17:01:15.759Z,57.60
2022-09-06T17:03:42.725Z,58.20
2022-09-06T17:06:09.889Z,59.40
2022-09-06T17:08:37.005Z,60.90
2022-09-06T17:11:09.686Z,62.70
2022-09-06T17:13:37.041Z,65.10
2022-09-06T17:16:23.585Z,67.30
2022-09-06T17:18:53.579Z,69.40
2022-09-06T17:21:24.587Z,70.60
2022-09-06T17:23:52.124Z,70.90
2022-09-06T17:26:21.324Z,71.30
2022-09-06T17:28:51.095Z,71.90
2022-09-06T17:31:23.649Z,73.30
2022-09-06T17:33:53.207Z,74.90
2022-09-06T17:36:23.642Z,76.20
2022-09-06T17:38:53.561Z,77.60
2022-09-06T17:41:21.637Z,78.40
2022-09-06T17:43:48.618Z,79.30
2022-09-06T17:46:15.408Z,80.50
2022-09-06T17:48:43.505Z,81.40
2022-09-06T17:51:11.701Z,82.20
2022-09-06T17:53:39.006Z,83.20
2022-09-06T17:56:10.416Z,84.20
2022-09-06T17:58:38.525Z,85.20
2022-09-06T18:01:11.778Z,86.00
2022-09-06T18:03:43.039Z,86.80
2022-09-06T18:06:12.475Z,87.50
2022-09-06T18:08:41.568Z,88.30
2022-09-06T18:11:20.791Z,89.20
2022-09-06T18:13:48.006Z,90.20
2022-09-06T18:16:15.308Z,90.30
2022-09-06T18:18:42.204Z,90.70
2022-09-06T18:21:09.009Z,90.70
2022-09-06T18:23:36.203Z,90.60
2022-09-06T18:26:08.059Z,90.50
2022-09-06T18:28:36.880Z,90.50
2022-09-06T18:31:14.914Z,90.90
2022-09-06T18:33:42.541Z,91.60
2022-09-06T18:36:11.145Z,92.00
2022-09-06T18:38:39.766Z,92.70
2022-09-06T18:41:10.319Z,93.10
2022-09-06T18:43:40.184Z,93.40
2022-09-06T18:46:08.445Z,93.40
2022-09-06T18:48:36.910Z,93.50
2022-09-06T18:51:16.259Z,93.30
2022-09-06T18:53:44.802Z,93.50
2022-09-06T18:56:13.610Z,93.40
2022-09-06T18:58:40.781Z,93.80
2022-09-06T19:01:10.331Z,94.00
2022-09-06T19:03:38.000Z,94.30
2022-09-06T19:06:23.044Z,94.60
2022-09-06T19:08:52.007Z,94.90
2022-09-06T19:11:20.491Z,95.20
2022-09-06T19:13:51.459Z,95.40
2022-09-06T19:16:18.889Z,95.60
2022-09-06T19:18:46.138Z,95.80
2022-09-06T19:21:15.977Z,96.00
2022-09-06T19:23:44.911Z,96.30
2022-09-06T19:26:19.677Z,96.60
2022-09-06T19:29:01.965Z,96.80
2022-09-06T19:31:31.596Z,96.90
2022-09-06T19:33:59.454Z,96.90
2022-09-06T19:36:27.985Z,97.10
2022-09-06T19:39:05.009Z,97.20
2022-09-06T19:41:35.586Z,97.30
2022-09-06T19:44:05.446Z,97.30
2022-09-06T19:46:32.339Z,97.30
2022-09-06T19:49:00.400Z,97.40
2022-09-06T19:51:27.356Z,97.40
2022-09-06T19:53:57.628Z,97.40
2022-09-06T19:56:31.690Z,97.50
2022-09-06T19:59:00.731Z,97.60
2022-09-06T20:01:31.129Z,97.70
2022-09-06T20:03:59.162Z,97.60
2022-09-06T20:06:27.161Z,97.60
2022-09-06T20:08:56.122Z,97.60
2022-09-06T20:11:25.800Z,97.50
2022-09-06T20:13:52.854Z,97.50
2022-09-06T20:16:20.915Z,97.40
2022-09-06T20:18:48.562Z,97.40
2022-09-06T20:21:17.724Z,97.40
2022-09-06T20:23:49.347Z,97.30
2022-09-06T20:26:16.955Z,97.30
2022-09-06T20:28:44.236Z,97.30
2022-09-06T20:31:15.407Z,97.30
2022-09-06T20:33:45.921Z,97.50
2022-09-06T20:36:16.184Z,97.60
2022-09-06T20:38:44.536Z,97.60
2022-09-06T20:41:17.091Z,97.70
2022-09-06T20:43:44.567Z,97.90
2022-09-06T20:46:14.705Z,98.10
2022-09-06T20:48:44.664Z,98.30
2022-09-06T20:51:21.135Z,98.40
2022-09-06T20:53:59.046Z,98.50
2022-09-06T20:56:28.597Z,98.60
2022-09-06T20:58:57.804Z,98.80
2022-09-06T21:01:26.517Z,99.10
2022-09-06T21:03:58.491Z,99.90
2022-09-06T21:06:27.448Z,99.90
2022-09-06T21:08:55.009Z,99.90
2022-09-06T21:11:22.303Z,99.90
2022-09-06T21:13:53.609Z,99.90
2022-09-06T21:16:24.545Z,99.90
2022-09-06T21:19:02.800Z,99.90
2022-09-06T21:21:30.451Z,99.90
2022-09-06T21:23:57.245Z,99.90
2022-09-06T21:26:24.232Z,99.90
2022-09-06T21:28:51.014Z,99.90
2022-09-06T21:31:23.973Z,99.90
2022-09-06T21:33:53.168Z,99.90
2022-09-06T21:36:27.522Z,99.90
2022-09-06T21:38:55.557Z,99.90
2022-09-06T21:41:23.212Z,99.90
2022-09-06T21:43:54.494Z,99.90
2022-09-06T21:46:23.056Z,99.90
2022-09-06T21:48:51.862Z,99.90
2022-09-06T21:51:21.102Z,99.90
2022-09-06T21:53:49.375Z,99.90
2022-09-06T21:56:19.498Z,99.90
2022-09-06T21:58:49.934Z,99.90
2022-09-06T22:01:16.726Z,99.90
2022-09-06T22:03:43.474Z,99.90
2022-09-06T22:06:17.623Z,99.90
2022-09-06T22:08:44.379Z,99.90
2022-09-06T22:11:14.181Z,99.90
2022-09-06T22:13:41.898Z,99.90
2022-09-06T22:16:09.511Z,99.90
2022-09-06T22:18:36.522Z,99.90
2022-09-06T22:21:09.042Z,99.90
2022-09-06T22:23:36.142Z,99.90
2022-09-06T22:26:05.834Z,99.90
2022-09-06T22:28:33.051Z,99.90
2022-09-06T22:31:00.303Z,99.90
2022-09-06T22:33:27.106Z,99.90
2022-09-06T22:35:53.860Z,99.90
2022-09-06T22:38:21.144Z,99.90
2022-09-06T22:40:47.894Z,99.90
2022-09-06T22:43:15.536Z,99.90
2022-09-06T22:45:47.443Z,99.90
2022-09-06T22:48:16.909Z,99.90
2022-09-06T22:50:44.464Z,99.90
2022-09-06T22:53:12.193Z,99.90
2022-09-06T22:55:39.192Z,99.90
2022-09-06T22:58:06.067Z,99.90
2022-09-06T23:00:36.034Z,99.90
2022-09-06T23:03:02.889Z,99.90
2022-09-06T23:05:31.283Z,99.90
2022-09-06T23:08:00.226Z,99.90
2022-09-06T23:10:27.669Z,99.90
2022-09-06T23:12:54.893Z,99.90
2022-09-06T23:15:21.763Z,99.90
2022-09-06T23:17:48.729Z,99.90
2022-09-06T23:20:15.514Z,99.90
2022-09-06T23:22:42.577Z,99.90
2022-09-06T23:25:10.304Z,99.90
2022-09-06T23:27:37.045Z,99.90
2022-09-06T23:30:04.277Z,99.90
2022-09-06T23:32:32.645Z,99.90
2022-09-06T23:34:59.550Z,99.90
2022-09-06T23:37:26.304Z,99.90
2022-09-06T23:39:53.157Z,99.90
2022-09-06T23:42:20.985Z,99.90
2022-09-06T23:44:47.844Z,99.90
2022-09-06T23:47:14.639Z,99.90
2022-09-06T23:49:41.410Z,99.90
2022-09-06T23:52:09.398Z,99.90
2022-09-06T23:54:36.466Z,99.90
2022-09-06T23:57:03.206Z,99.90
2022-09-06T23:59:30.013Z,99.90
